createdAt,value
2022-09-15T00:00:03.524Z,305.000000
2022-09-15T00:01:00.209Z,270.000000
2022-09-15T00:02:00.454Z,270.000000
2022-09-15T00:03:00.285Z,270.000000
2022-09-15T00:04:00.313Z,272.500000
2022-09-15T00:05:03.442Z,272.500000
2022-09-15T00:06:00.356Z,265.000000
2022-09-15T00:07:00.249Z,265.000000
2022-09-15T00:08:00.311Z,287.500000
2022-09-15T00:09:00.267Z,287.500000
2022-09-15T00:10:03.774Z,287.500000
2022-09-15T00:11:00.274Z,342.500000
2022-09-15T00:12:00.347Z,342.500000
2022-09-15T00:13:00.299Z,342.500000
2022-09-15T00:14:00.397Z,340.000000
2022-09-15T00:15:04.518Z,340.000000
2022-09-15T00:16:00.367Z,337.500000
2022-09-15T00:17:00.440Z,337.500000
2022-09-15T00:18:00.398Z,350.000000
2022-09-15T00:19:00.345Z,350.000000
2022-09-15T00:20:03.619Z,350.000000
2022-09-15T00:21:00.431Z,322.500000
2022-09-15T00:22:00.413Z,322.500000
2022-09-15T00:23:00.376Z,322.500000
2022-09-15T00:24:00.437Z,317.500000
2022-09-15T00:25:03.500Z,317.500000
2022-09-15T00:26:00.444Z,317.500000
2022-09-15T00:27:00.454Z,330.000000
2022-09-15T00:28:00.463Z,330.000000
2022-09-15T00:29:00.415Z,322.500000
2022-09-15T00:30:03.763Z,322.500000
2022-09-15T00:31:00.513Z,327.500000
2022-09-15T00:32:00.484Z,327.500000
2022-09-15T00:33:00.476Z,327.500000
2022-09-15T00:34:00.503Z,305.000000
2022-09-15T00:35:04.552Z,305.000000
2022-09-15T00:36:00.521Z,280.000000
2022-09-15T00:37:00.459Z,280.000000
2022-09-15T00:38:00.544Z,280.000000
2022-09-15T00:39:00.506Z,317.500000
2022-09-15T00:40:03.905Z,317.500000
2022-09-15T00:41:00.510Z,312.500000
2022-09-15T00:42:00.561Z,312.500000
2022-09-15T00:43:00.500Z,312.500000
2022-09-15T00:44:00.580Z,315.000000
2022-09-15T00:45:05.110Z,315.000000
2022-09-15T00:46:00.657Z,315.000000
2022-09-15T00:47:18.306Z,305.000000
2022-09-15T00:48:00.605Z,305.000000
2022-09-15T00:49:00.540Z,322.500000
2022-09-15T00:50:03.818Z,322.500000
2022-09-15T00:51:00.590Z,322.500000
2022-09-15T00:52:00.598Z,315.000000
2022-09-15T00:53:00.569Z,315.000000
2022-09-15T00:54:00.665Z,320.000000
2022-09-15T00:55:03.464Z,320.000000
2022-09-15T00:56:00.671Z,315.000000
2022-09-15T00:57:00.650Z,315.000000
2022-09-15T00:58:00.684Z,315.000000
2022-09-15T00:59:00.636Z,292.500000
2022-09-15T01:00:04.396Z,292.500000
2022-09-15T01:01:00.864Z,307.500000
2022-09-15T01:02:00.841Z,307.500000
2022-09-15T01:03:00.700Z,307.500000
2022-09-15T01:04:00.732Z,310.000000
2022-09-15T01:05:03.546Z,310.000000
2022-09-15T01:06:00.796Z,310.000000
2022-09-15T01:07:00.694Z,322.500000
2022-09-15T01:08:02.211Z,322.500000
2022-09-15T01:09:00.716Z,345.000000
2022-09-15T01:10:04.244Z,345.000000
2022-09-15T01:11:00.717Z,345.000000
2022-09-15T01:12:00.790Z,317.500000
2022-09-15T01:13:00.728Z,317.500000
2022-09-15T01:14:00.822Z,300.000000
2022-09-15T01:15:04.894Z,300.000000
2022-09-15T01:16:02.313Z,305.000000
2022-09-15T01:17:00.807Z,305.000000
2022-09-15T01:18:00.825Z,305.000000
2022-09-15T01:19:00.776Z,325.000000
2022-09-15T01:20:03.993Z,325.000000
2022-09-15T01:21:00.782Z,325.000000
2022-09-15T01:22:00.853Z,325.000000
2022-09-15T01:23:00.797Z,325.000000
2022-09-15T01:24:00.870Z,307.500000
2022-09-15T01:25:03.914Z,307.500000
2022-09-15T01:26:00.900Z,275.000000
2022-09-15T01:27:09.661Z,275.000000
2022-09-15T01:28:00.873Z,275.000000
2022-09-15T01:29:00.846Z,292.500000
2022-09-15T01:30:04.044Z,292.500000
2022-09-15T01:31:00.842Z,292.500000
2022-09-15T01:32:01.062Z,292.500000
2022-09-15T01:33:00.863Z,292.500000
2022-09-15T01:34:02.269Z,287.500000
2022-09-15T01:35:03.904Z,287.500000
2022-09-15T01:36:00.965Z,317.500000
2022-09-15T01:37:00.900Z,317.500000
2022-09-15T01:38:02.239Z,317.500000
2022-09-15T01:39:00.923Z,292.500000
2022-09-15T01:40:05.676Z,292.500000
2022-09-15T01:41:00.919Z,292.500000
2022-09-15T01:42:02.181Z,245.000000
2022-09-15T01:43:00.938Z,245.000000
2022-09-15T01:44:01.026Z,245.000000
2022-09-15T01:45:03.810Z,300.000000
2022-09-15T01:46:02.250Z,300.000000
2022-09-15T01:47:00.948Z,315.000000
2022-09-15T01:48:01.197Z,315.000000
2022-09-15T01:49:00.971Z,265.000000
2022-09-15T01:50:04.391Z,265.000000
2022-09-15T01:51:00.993Z,265.000000
2022-09-15T01:52:01.048Z,327.500000
2022-09-15T01:53:01.002Z,327.500000
2022-09-15T01:54:02.196Z,330.000000
2022-09-15T01:55:03.850Z,330.000000
2022-09-15T01:56:02.219Z,330.000000
2022-09-15T01:57:01.040Z,332.500000
2022-09-15T01:58:01.092Z,332.500000
2022-09-15T01:59:01.053Z,327.500000
2022-09-15T02:00:04.893Z,327.500000
2022-09-15T02:01:01.134Z,327.500000
2022-09-15T02:02:01.306Z,265.000000
2022-09-15T02:03:01.094Z,265.000000
2022-09-15T02:04:02.211Z,265.000000
2022-09-15T02:05:04.141Z,247.500000
2022-09-15T02:06:01.181Z,247.500000
2022-09-15T02:07:01.129Z,280.000000
2022-09-15T02:08:02.224Z,280.000000
2022-09-15T02:09:01.140Z,280.000000
2022-09-15T02:10:04.400Z,310.000000
2022-09-15T02:11:01.149Z,310.000000
2022-09-15T02:12:02.184Z,307.500000
2022-09-15T02:13:01.150Z,307.500000
2022-09-15T02:14:01.244Z,307.500000
2022-09-15T02:15:04.095Z,307.500000
2022-09-15T02:16:02.235Z,307.500000
2022-09-15T02:17:00.182Z,322.500000
2022-09-15T02:18:00.271Z,322.500000
2022-09-15T02:19:00.194Z,322.500000
2022-09-15T02:20:04.770Z,337.500000
2022-09-15T02:21:00.229Z,337.500000
2022-09-15T02:22:00.275Z,255.000000
2022-09-15T02:23:00.222Z,255.000000
2022-09-15T02:24:00.302Z,255.000000
2022-09-15T02:25:03.219Z,240.000000
2022-09-15T02:26:00.343Z,240.000000
2022-09-15T02:27:00.265Z,240.000000
2022-09-15T02:28:00.305Z,255.000000
2022-09-15T02:29:00.268Z,255.000000
2022-09-15T02:30:03.406Z,260.000000
2022-09-15T02:31:00.287Z,260.000000
2022-09-15T02:32:04.948Z,260.000000
2022-09-15T02:33:00.299Z,255.000000
2022-09-15T02:34:00.364Z,255.000000
2022-09-15T02:35:03.869Z,255.000000
2022-09-15T02:36:00.437Z,255.000000
2022-09-15T02:37:00.308Z,255.000000
2022-09-15T02:38:00.416Z,242.500000
2022-09-15T02:39:00.343Z,242.500000
2022-09-15T02:40:03.458Z,275.000000
2022-09-15T02:41:00.345Z,275.000000
2022-09-15T02:42:00.423Z,297.500000
2022-09-15T02:43:00.360Z,297.500000
2022-09-15T02:44:00.470Z,297.500000
2022-09-15T02:45:03.363Z,307.500000
2022-09-15T02:46:00.487Z,307.500000
2022-09-15T02:47:00.385Z,307.500000
2022-09-15T02:48:00.463Z,320.000000
2022-09-15T02:49:00.398Z,320.000000
2022-09-15T02:50:03.730Z,337.500000
2022-09-15T02:51:00.422Z,337.500000
2022-09-15T02:52:00.498Z,337.500000
2022-09-15T02:53:00.427Z,337.500000
2022-09-15T02:54:00.494Z,337.500000
2022-09-15T02:55:03.320Z,337.500000
2022-09-15T02:56:02.210Z,337.500000
2022-09-15T02:57:00.456Z,337.500000
2022-09-15T02:58:00.502Z,297.500000
2022-09-15T02:59:00.469Z,297.500000
2022-09-15T03:00:04.820Z,297.500000
2022-09-15T03:01:00.594Z,297.500000
2022-09-15T03:02:00.643Z,297.500000
2022-09-15T03:03:00.528Z,297.500000
2022-09-15T03:04:02.202Z,297.500000
2022-09-15T03:05:03.410Z,295.000000
2022-09-15T03:06:00.610Z,295.000000
2022-09-15T03:07:00.542Z,295.000000
2022-09-15T03:08:02.295Z,325.000000
2022-09-15T03:09:00.572Z,325.000000
2022-09-15T03:10:03.840Z,340.000000
2022-09-15T03:11:00.577Z,340.000000
2022-09-15T03:12:02.235Z,335.000000
2022-09-15T03:13:00.596Z,335.000000
2022-09-15T03:14:00.687Z,335.000000
2022-09-15T03:15:03.651Z,307.500000
2022-09-15T03:16:00.758Z,307.500000
2022-09-15T03:17:00.633Z,307.500000
2022-09-15T03:18:00.693Z,277.500000
2022-09-15T03:19:00.635Z,277.500000
2022-09-15T03:20:03.935Z,267.500000
2022-09-15T03:21:00.653Z,267.500000
2022-09-15T03:22:00.713Z,267.500000
2022-09-15T03:23:00.666Z,267.500000
2022-09-15T03:24:00.769Z,267.500000
2022-09-15T03:25:03.660Z,267.500000
2022-09-15T03:26:00.762Z,267.500000
2022-09-15T03:27:00.695Z,267.500000
2022-09-15T03:28:01.071Z,255.000000
2022-09-15T03:29:00.701Z,255.000000
2022-09-15T03:30:05.389Z,255.000000
2022-09-15T03:31:00.734Z,237.500000
2022-09-15T03:32:00.845Z,237.500000
2022-09-15T03:33:00.756Z,307.500000
2022-09-15T03:34:00.796Z,307.500000
2022-09-15T03:35:03.762Z,307.500000
2022-09-15T03:36:00.827Z,312.500000
2022-09-15T03:37:00.775Z,312.500000
2022-09-15T03:38:00.870Z,240.000000
2022-09-15T03:39:00.813Z,240.000000
2022-09-15T03:40:04.274Z,240.000000
2022-09-15T03:41:00.809Z,157.500000
2022-09-15T03:42:00.894Z,157.500000
2022-09-15T03:43:00.827Z,47.500000
2022-09-15T03:44:02.267Z,47.500000
2022-09-15T03:45:03.830Z,47.500000
2022-09-15T03:46:01.020Z,327.500000
2022-09-15T03:47:00.862Z,327.500000
2022-09-15T03:48:00.945Z,277.500000
2022-09-15T03:49:00.875Z,277.500000
2022-09-15T03:50:05.365Z,277.500000
2022-09-15T03:51:00.887Z,215.000000
2022-09-15T03:52:00.947Z,215.000000
2022-09-15T03:53:00.912Z,215.000000
2022-09-15T03:54:00.982Z,200.000000
2022-09-15T03:55:03.761Z,200.000000
2022-09-15T03:56:02.285Z,197.500000
2022-09-15T03:57:00.957Z,197.500000
2022-09-15T03:58:01.265Z,197.500000
2022-09-15T03:59:00.960Z,197.500000
2022-09-15T04:00:04.957Z,197.500000
2022-09-15T04:01:01.073Z,207.500000
2022-09-15T04:02:01.214Z,207.500000
2022-09-15T04:03:01.021Z,255.000000
2022-09-15T04:04:01.081Z,255.000000
2022-09-15T04:05:04.161Z,255.000000
2022-09-15T04:06:01.189Z,262.500000
2022-09-15T04:07:01.059Z,262.500000
2022-09-15T04:08:01.148Z,262.500000
2022-09-15T04:09:01.077Z,262.500000
2022-09-15T04:10:10.415Z,310.000000
2022-09-15T04:11:01.096Z,310.000000
2022-09-15T04:12:01.186Z,310.000000
2022-09-15T04:13:01.104Z,310.000000
2022-09-15T04:14:01.207Z,320.000000
2022-09-15T04:15:05.266Z,320.000000
2022-09-15T04:16:01.251Z,275.000000
2022-09-15T04:17:01.122Z,275.000000
2022-09-15T04:18:01.203Z,275.000000
2022-09-15T04:19:01.132Z,265.000000
2022-09-15T04:20:04.627Z,265.000000
2022-09-15T04:21:01.152Z,280.000000
2022-09-15T04:22:01.221Z,280.000000
2022-09-15T04:23:01.416Z,265.000000
2022-09-15T04:24:09.187Z,265.000000
2022-09-15T04:25:05.649Z,265.000000
2022-09-15T04:26:00.258Z,242.500000
2022-09-15T04:27:00.212Z,242.500000
2022-09-15T04:28:00.292Z,242.500000
2022-09-15T04:29:03.909Z,242.500000
2022-09-15T04:30:03.553Z,242.500000
2022-09-15T04:31:00.322Z,240.000000
2022-09-15T04:32:00.335Z,240.000000
2022-09-15T04:33:00.252Z,240.000000
2022-09-15T04:34:00.338Z,240.000000
2022-09-15T04:35:03.558Z,240.000000
2022-09-15T04:36:00.360Z,240.000000
2022-09-15T04:37:00.306Z,240.000000
2022-09-15T04:38:00.332Z,240.000000
2022-09-15T04:39:00.308Z,240.000000
2022-09-15T04:40:03.489Z,240.000000
2022-09-15T04:41:00.306Z,240.000000
2022-09-15T04:42:00.383Z,240.000000
2022-09-15T04:43:00.343Z,240.000000
2022-09-15T04:44:00.443Z,240.000000
2022-09-15T04:45:03.885Z,240.000000
2022-09-15T04:46:00.414Z,240.000000
2022-09-15T04:47:00.468Z,240.000000
2022-09-15T04:48:00.427Z,240.000000
2022-09-15T04:49:00.380Z,250.000000
2022-09-15T04:50:05.212Z,250.000000
2022-09-15T04:51:00.431Z,250.000000
2022-09-15T04:52:00.445Z,335.000000
2022-09-15T04:53:00.375Z,335.000000
2022-09-15T04:54:00.466Z,345.000000
2022-09-15T04:55:08.066Z,345.000000
2022-09-15T04:56:00.476Z,335.000000
2022-09-15T04:57:00.425Z,335.000000
2022-09-15T04:58:00.475Z,335.000000
2022-09-15T04:59:03.989Z,317.500000
2022-09-15T05:00:05.021Z,317.500000
2022-09-15T05:01:00.534Z,317.500000
2022-09-15T05:02:00.623Z,310.000000
2022-09-15T05:03:00.485Z,310.000000
2022-09-15T05:04:00.561Z,310.000000
2022-09-15T05:05:07.129Z,310.000000
2022-09-15T05:06:00.601Z,310.000000
2022-09-15T05:07:00.552Z,270.000000
2022-09-15T05:08:00.633Z,270.000000
2022-09-15T05:09:00.537Z,270.000000
2022-09-15T05:10:05.162Z,250.000000
2022-09-15T05:11:00.546Z,250.000000
2022-09-15T05:12:00.634Z,250.000000
2022-09-15T05:13:00.589Z,250.000000
2022-09-15T05:14:00.646Z,250.000000
2022-09-15T05:15:04.904Z,270.000000
2022-09-15T05:16:00.770Z,270.000000
2022-09-15T05:17:00.609Z,312.500000
2022-09-15T05:18:00.674Z,312.500000
2022-09-15T05:19:00.625Z,297.500000
2022-09-15T05:20:10.615Z,297.500000
2022-09-15T05:21:00.649Z,297.500000
2022-09-15T05:22:00.718Z,292.500000
2022-09-15T05:23:00.651Z,292.500000
2022-09-15T05:24:00.743Z,292.500000
2022-09-15T05:25:03.638Z,250.000000
2022-09-15T05:26:00.763Z,250.000000
2022-09-15T05:27:00.685Z,250.000000
2022-09-15T05:28:00.746Z,250.000000
2022-09-15T05:29:00.688Z,272.500000
2022-09-15T05:31:00.725Z,272.500000
2022-09-15T05:32:00.813Z,300.000000
2022-09-15T05:33:00.734Z,300.000000
2022-09-15T05:34:00.787Z,300.000000
2022-09-15T05:35:04.468Z,287.500000
2022-09-15T05:36:00.848Z,287.500000
2022-09-15T05:37:00.753Z,287.500000
2022-09-15T05:38:00.820Z,287.500000
2022-09-15T05:39:00.783Z,287.500000
2022-09-15T05:40:08.450Z,290.000000
2022-09-15T05:41:00.937Z,290.000000
2022-09-15T05:42:00.883Z,292.500000
2022-09-15T05:43:00.794Z,292.500000
2022-09-15T05:44:00.870Z,292.500000
2022-09-15T05:45:10.148Z,295.000000
2022-09-15T05:46:00.899Z,295.000000
2022-09-15T05:47:00.908Z,332.500000
2022-09-15T05:48:00.971Z,332.500000
2022-09-15T05:49:00.835Z,332.500000
2022-09-15T05:50:04.313Z,332.500000
2022-09-15T05:51:00.851Z,332.500000
2022-09-15T05:52:00.923Z,325.000000
2022-09-15T05:53:00.859Z,325.000000
2022-09-15T05:54:00.960Z,325.000000
2022-09-15T05:55:05.044Z,305.000000
2022-09-15T05:56:00.953Z,305.000000
2022-09-15T05:57:00.890Z,305.000000
2022-09-15T05:58:00.976Z,305.000000
2022-09-15T05:59:00.886Z,305.000000
2022-09-15T06:00:04.146Z,305.000000
2022-09-15T06:01:00.937Z,305.000000
2022-09-15T06:02:01.119Z,302.500000
2022-09-15T06:03:01.044Z,302.500000
2022-09-15T06:04:01.040Z,302.500000
2022-09-15T06:05:04.192Z,302.500000
2022-09-15T06:06:01.027Z,302.500000
2022-09-15T06:07:00.965Z,302.500000
2022-09-15T06:08:01.035Z,302.500000
2022-09-15T06:09:01.204Z,302.500000
2022-09-15T06:10:04.391Z,302.500000
2022-09-15T06:11:01.015Z,302.500000
2022-09-15T06:12:01.139Z,302.500000
2022-09-15T06:13:02.013Z,302.500000
2022-09-15T06:14:01.059Z,302.500000
2022-09-15T06:15:11.826Z,302.500000
2022-09-15T06:16:01.181Z,302.500000
2022-09-15T06:17:01.089Z,302.500000
2022-09-15T06:18:01.123Z,302.500000
2022-09-15T06:19:01.038Z,302.500000
2022-09-15T06:20:06.171Z,302.500000
2022-09-15T06:21:01.076Z,302.500000
2022-09-15T06:22:01.168Z,302.500000
2022-09-15T06:23:01.076Z,302.500000
2022-09-15T06:24:01.163Z,302.500000
2022-09-15T06:25:04.245Z,302.500000
2022-09-15T06:26:01.167Z,302.500000
2022-09-15T06:27:01.113Z,302.500000
2022-09-15T06:28:01.378Z,300.000000
2022-09-15T06:29:01.126Z,300.000000
2022-09-15T06:30:04.703Z,300.000000
2022-09-15T06:31:01.149Z,300.000000
2022-09-15T06:32:01.227Z,300.000000
2022-09-15T06:33:01.165Z,265.000000
2022-09-15T06:34:01.259Z,265.000000
2022-09-15T06:35:04.204Z,257.500000
2022-09-15T06:36:01.277Z,257.500000
2022-09-15T06:37:01.171Z,265.000000
2022-09-15T06:38:00.258Z,265.000000
2022-09-15T06:39:00.202Z,265.000000
2022-09-15T06:40:04.669Z,275.000000
2022-09-15T06:41:00.203Z,275.000000
2022-09-15T06:42:03.593Z,275.000000
2022-09-15T06:43:00.215Z,295.000000
2022-09-15T06:44:00.291Z,295.000000
2022-09-15T06:45:03.177Z,295.000000
2022-09-15T06:46:00.411Z,295.000000
2022-09-15T06:47:00.256Z,295.000000
2022-09-15T06:48:23.005Z,295.000000
2022-09-15T06:49:00.241Z,295.000000
2022-09-15T06:50:06.409Z,295.000000
2022-09-15T06:51:00.277Z,295.000000
2022-09-15T06:52:00.631Z,295.000000
2022-09-15T06:53:00.270Z,290.000000
2022-09-15T06:54:00.342Z,290.000000
2022-09-15T06:55:03.297Z,290.000000
2022-09-15T06:56:00.357Z,215.000000
2022-09-15T06:57:00.305Z,215.000000
2022-09-15T06:58:00.399Z,235.000000
2022-09-15T06:59:00.306Z,235.000000
2022-09-15T07:00:03.614Z,245.000000
2022-09-15T07:01:00.335Z,245.000000
2022-09-15T07:02:04.740Z,245.000000
2022-09-15T07:03:00.476Z,245.000000
2022-09-15T07:04:00.601Z,245.000000
2022-09-15T07:05:03.371Z,245.000000
2022-09-15T07:06:00.443Z,245.000000
2022-09-15T07:07:00.391Z,245.000000
2022-09-15T07:08:00.456Z,255.000000
2022-09-15T07:09:00.413Z,255.000000
2022-09-15T07:10:05.113Z,292.500000
2022-09-15T07:11:00.418Z,292.500000
2022-09-15T07:12:00.502Z,292.500000
2022-09-15T07:13:00.456Z,295.000000
2022-09-15T07:14:00.517Z,295.000000
2022-09-15T07:15:03.976Z,295.000000
2022-09-15T07:16:00.585Z,235.000000
2022-09-15T07:17:00.440Z,235.000000
2022-09-15T07:18:00.538Z,235.000000
2022-09-15T07:19:00.493Z,257.500000
2022-09-15T07:20:04.170Z,257.500000
2022-09-15T07:21:00.511Z,272.500000
2022-09-15T07:22:00.595Z,272.500000
2022-09-15T07:23:00.524Z,245.000000
2022-09-15T07:24:03.823Z,245.000000
2022-09-15T07:25:03.503Z,245.000000
2022-09-15T07:26:00.604Z,245.000000
2022-09-15T07:27:00.543Z,245.000000
2022-09-15T07:28:00.631Z,252.500000
2022-09-15T07:29:00.546Z,252.500000
2022-09-15T07:30:04.947Z,252.500000
2022-09-15T07:31:00.562Z,257.500000
2022-09-15T07:32:00.701Z,257.500000
2022-09-15T07:33:00.569Z,250.000000
2022-09-15T07:34:00.676Z,250.000000
2022-09-15T07:35:03.733Z,250.000000
2022-09-15T07:36:00.696Z,290.000000
2022-09-15T07:37:00.595Z,290.000000
2022-09-15T07:38:00.660Z,280.000000
2022-09-15T07:39:00.615Z,280.000000
2022-09-15T07:40:05.011Z,280.000000
2022-09-15T07:41:00.621Z,307.500000
2022-09-15T07:42:00.681Z,307.500000
2022-09-15T07:43:00.626Z,290.000000
2022-09-15T07:44:00.702Z,290.000000
2022-09-15T07:45:03.891Z,290.000000
2022-09-15T07:46:00.819Z,320.000000
2022-09-15T07:47:00.656Z,320.000000
2022-09-15T07:48:00.743Z,320.000000
2022-09-15T07:49:00.671Z,277.500000
2022-09-15T07:50:07.529Z,277.500000
2022-09-15T07:51:00.685Z,277.500000
2022-09-15T07:52:00.790Z,260.000000
2022-09-15T07:53:00.707Z,260.000000
2022-09-15T07:54:00.787Z,315.000000
2022-09-15T07:55:03.661Z,315.000000
2022-09-15T07:56:00.822Z,315.000000
2022-09-15T07:57:00.724Z,315.000000
2022-09-15T07:58:00.834Z,315.000000
2022-09-15T07:59:00.727Z,250.000000
2022-09-15T08:00:05.242Z,250.000000
2022-09-15T08:01:00.807Z,250.000000
2022-09-15T08:02:00.907Z,267.500000
2022-09-15T08:03:00.790Z,267.500000
2022-09-15T08:04:01.052Z,267.500000
2022-09-15T08:05:05.365Z,267.500000
2022-09-15T08:06:00.895Z,195.000000
2022-09-15T08:07:00.817Z,195.000000
2022-09-15T08:08:00.882Z,195.000000
2022-09-15T08:09:01.146Z,265.000000
2022-09-15T08:10:07.885Z,265.000000
2022-09-15T08:11:00.853Z,265.000000
2022-09-15T08:12:00.970Z,280.000000
2022-09-15T08:13:00.862Z,280.000000
2022-09-15T08:14:00.959Z,280.000000
2022-09-15T08:15:05.076Z,290.000000
2022-09-15T08:16:01.047Z,290.000000
2022-09-15T08:17:00.887Z,300.000000
2022-09-15T08:18:00.981Z,300.000000
2022-09-15T08:19:00.954Z,297.500000
2022-09-15T08:20:04.612Z,297.500000
2022-09-15T08:21:05.615Z,297.500000
2022-09-15T08:22:01.019Z,285.000000
2022-09-15T08:23:00.942Z,285.000000
2022-09-15T08:24:01.014Z,265.000000
2022-09-15T08:25:04.053Z,265.000000
2022-09-15T08:26:01.024Z,265.000000
2022-09-15T08:27:00.969Z,262.500000
2022-09-15T08:28:01.092Z,262.500000
2022-09-15T08:29:00.976Z,17.500000
2022-09-15T08:30:05.571Z,17.500000
2022-09-15T08:31:01.121Z,17.500000
2022-09-15T08:32:01.076Z,335.000000
2022-09-15T08:33:01.015Z,335.000000
2022-09-15T08:34:01.121Z,335.000000
2022-09-15T08:35:04.064Z,342.500000
2022-09-15T08:36:01.106Z,342.500000
2022-09-15T08:37:01.026Z,10.000000
2022-09-15T08:38:01.099Z,10.000000
2022-09-15T08:39:01.049Z,10.000000
2022-09-15T08:40:09.548Z,245.000000
2022-09-15T08:41:01.062Z,245.000000
2022-09-15T08:42:01.141Z,222.500000
2022-09-15T08:43:01.066Z,222.500000
2022-09-15T08:44:01.188Z,225.000000
2022-09-15T08:45:04.128Z,225.000000
2022-09-15T08:46:01.233Z,225.000000
2022-09-15T08:47:01.105Z,192.500000
2022-09-15T08:48:01.179Z,192.500000
2022-09-15T08:49:03.117Z,217.500000
2022-09-15T08:50:04.433Z,217.500000
2022-09-15T08:51:06.181Z,217.500000
2022-09-15T08:52:01.185Z,262.500000
2022-09-15T08:53:01.141Z,262.500000
2022-09-15T08:54:01.213Z,262.500000
2022-09-15T08:55:04.461Z,255.000000
2022-09-15T08:56:01.212Z,255.000000
2022-09-15T08:57:00.214Z,275.000000
2022-09-15T08:58:00.220Z,275.000000
2022-09-15T08:59:00.186Z,275.000000
2022-09-15T09:00:04.966Z,290.000000
2022-09-15T09:01:00.205Z,290.000000
2022-09-15T09:02:01.192Z,300.000000
2022-09-15T09:03:00.315Z,300.000000
2022-09-15T09:04:01.512Z,250.000000
2022-09-15T09:05:04.362Z,250.000000
2022-09-15T09:06:00.327Z,250.000000
2022-09-15T09:07:00.234Z,282.500000
2022-09-15T09:08:01.591Z,282.500000
2022-09-15T09:09:00.266Z,322.500000
2022-09-15T09:10:04.233Z,322.500000
2022-09-15T09:11:00.263Z,322.500000
2022-09-15T09:12:00.435Z,245.000000
2022-09-15T09:13:00.277Z,245.000000
2022-09-15T09:14:01.967Z,230.000000
2022-09-15T09:15:03.248Z,230.000000
2022-09-15T09:16:00.440Z,230.000000
2022-09-15T09:17:00.306Z,270.000000
2022-09-15T09:18:00.370Z,270.000000
2022-09-15T09:19:00.309Z,270.000000
2022-09-15T09:20:03.896Z,270.000000
2022-09-15T09:21:00.335Z,270.000000
2022-09-15T09:22:00.381Z,265.000000
2022-09-15T09:23:00.339Z,265.000000
2022-09-15T09:24:00.402Z,230.000000
2022-09-15T09:25:21.264Z,230.000000
2022-09-15T09:26:00.420Z,230.000000
2022-09-15T09:27:00.371Z,230.000000
2022-09-15T09:28:00.422Z,230.000000
2022-09-15T09:29:00.373Z,230.000000
2022-09-15T09:30:04.774Z,260.000000
2022-09-15T09:31:00.476Z,260.000000
2022-09-15T09:32:00.508Z,260.000000
2022-09-15T09:33:00.411Z,297.500000
2022-09-15T09:34:00.460Z,297.500000
2022-09-15T09:35:03.448Z,245.000000
2022-09-15T09:36:00.499Z,245.000000
2022-09-15T09:37:00.456Z,257.500000
2022-09-15T09:38:00.497Z,257.500000
2022-09-15T09:39:00.449Z,257.500000
2022-09-15T09:40:05.485Z,250.000000
2022-09-15T09:41:02.550Z,250.000000
2022-09-15T09:42:00.539Z,250.000000
2022-09-15T09:43:00.497Z,250.000000
2022-09-15T09:44:00.545Z,250.000000
2022-09-15T09:45:03.529Z,217.500000
2022-09-15T09:46:00.598Z,217.500000
2022-09-15T09:47:00.499Z,227.500000
2022-09-15T09:48:01.742Z,227.500000
2022-09-15T09:49:00.549Z,227.500000
2022-09-15T09:50:05.429Z,262.500000
2022-09-15T09:51:00.539Z,262.500000
2022-09-15T09:52:00.596Z,262.500000
2022-09-15T09:53:00.534Z,277.500000
2022-09-15T09:54:00.608Z,277.500000
2022-09-15T09:55:05.299Z,260.000000
2022-09-15T09:56:00.672Z,260.000000
2022-09-15T09:57:00.591Z,260.000000
2022-09-15T09:58:00.667Z,260.000000
2022-09-15T09:59:00.618Z,260.000000
2022-09-15T10:00:03.897Z,255.000000
2022-09-15T10:01:00.694Z,255.000000
2022-09-15T10:02:00.706Z,255.000000
2022-09-15T10:03:00.650Z,285.000000
2022-09-15T10:04:00.773Z,285.000000
2022-09-15T10:05:03.874Z,292.500000
2022-09-15T10:06:00.726Z,292.500000
2022-09-15T10:07:00.695Z,292.500000
2022-09-15T10:08:00.735Z,297.500000
2022-09-15T10:09:00.679Z,297.500000
2022-09-15T10:10:03.717Z,300.000000
2022-09-15T10:11:00.693Z,300.000000
2022-09-15T10:12:00.776Z,300.000000
2022-09-15T10:13:00.724Z,267.500000
2022-09-15T10:14:00.773Z,267.500000
2022-09-15T10:15:05.211Z,267.500000
2022-09-15T10:16:00.784Z,280.000000
2022-09-15T10:17:00.823Z,280.000000
2022-09-15T10:18:00.805Z,307.500000
2022-09-15T10:19:00.902Z,307.500000
2022-09-15T10:20:03.933Z,262.500000
2022-09-15T10:21:00.772Z,262.500000
2022-09-15T10:22:00.868Z,237.500000
2022-09-15T10:23:00.772Z,237.500000
2022-09-15T10:24:00.859Z,237.500000
2022-09-15T10:25:03.791Z,260.000000
2022-09-15T10:26:00.859Z,260.000000
2022-09-15T10:27:00.813Z,260.000000
2022-09-15T10:28:00.861Z,295.000000
2022-09-15T10:29:00.814Z,295.000000
2022-09-15T10:30:04.087Z,305.000000
2022-09-15T10:31:00.866Z,305.000000
2022-09-15T10:32:01.018Z,295.000000
2022-09-15T10:33:00.852Z,295.000000
2022-09-15T10:34:00.909Z,295.000000
2022-09-15T10:35:05.151Z,327.500000
2022-09-15T10:36:00.940Z,327.500000
2022-09-15T10:37:00.929Z,327.500000
2022-09-15T10:38:00.945Z,310.000000
2022-09-15T10:39:00.888Z,310.000000
2022-09-15T10:40:05.292Z,295.000000
2022-09-15T10:41:00.891Z,295.000000
2022-09-15T10:42:01.041Z,295.000000
2022-09-15T10:43:00.946Z,260.000000
2022-09-15T10:44:01.026Z,260.000000
2022-09-15T10:45:04.655Z,260.000000
2022-09-15T10:46:01.043Z,292.500000
2022-09-15T10:47:00.931Z,292.500000
2022-09-15T10:48:01.016Z,292.500000
2022-09-15T10:49:00.991Z,310.000000
2022-09-15T10:50:08.501Z,310.000000
2022-09-15T10:51:00.980Z,307.500000
2022-09-15T10:52:01.055Z,307.500000
2022-09-15T10:53:00.992Z,282.500000
2022-09-15T10:54:01.061Z,282.500000
2022-09-15T10:55:04.426Z,282.500000
2022-09-15T10:56:01.102Z,285.000000
2022-09-15T10:57:01.025Z,285.000000
2022-09-15T10:58:01.091Z,280.000000
2022-09-15T10:59:01.035Z,280.000000
2022-09-15T11:00:04.647Z,280.000000
2022-09-15T11:01:01.121Z,300.000000
2022-09-15T11:02:01.192Z,300.000000
2022-09-15T11:03:01.074Z,300.000000
2022-09-15T11:04:01.139Z,295.000000
2022-09-15T11:05:05.342Z,295.000000
2022-09-15T11:06:01.215Z,320.000000